Time;durP1;ratioP1;P1;durP2;ratioP2;P2;SDS_P1;SDS_P2;PMS_P1;PMS_P2;Temp;Humidity;BMP_temperature;BMP_pressure;BME280_temperature;BME280_humidity;BME280_pressure;Samples;Min_cycle;Max_cycle;Signal;HPM_P1;HPM_P2
2021/07/11 00:01:21;;;;;;;3.20;1.63;;;21.80;72.50;;;;;;5097789;28;20487;-70
2021/07/11 00:03:47;;;;;;;4.60;1.80;;;21.90;73.70;;;;;;5097719;28;20035;-70
2021/07/11 00:06:13;;;;;;;4.30;1.85;;;21.90;73.30;;;;;;5097381;28;20424;-71
2021/07/11 00:08:38;;;;;;;5.38;1.80;;;22.00;72.80;;;;;;5097639;28;20020;-70
2021/07/11 00:11:04;;;;;;;6.35;1.98;;;22.00;73.60;;;;;;5097540;28;20028;-70
2021/07/11 00:13:30;;;;;;;3.92;1.85;;;22.00;72.40;;;;;;5097626;28;20054;-70
2021/07/11 00:15:55;;;;;;;3.00;1.73;;;22.10;72.00;;;;;;5097557;28;20046;-70
2021/07/11 00:18:21;;;;;;;4.70;1.70;;;22.10;72.20;;;;;;5079326;28;20031;-70
2021/07/11 00:20:47;;;;;;;1.77;1.67;;;22.20;72.00;;;;;;5097163;28;20360;-70
2021/07/11 00:23:13;;;;;;;4.35;2.08;;;22.20;72.60;;;;;;5097057;28;20035;-70
2021/07/11 00:25:39;;;;;;;2.58;1.70;;;22.20;72.10;;;;;;5097371;28;20029;-70
2021/07/11 00:28:06;;;;;;;5.57;1.98;;;22.20;73.00;;;;;;5097314;28;20055;-70
2021/07/11 00:30:32;;;;;;;5.47;1.75;;;22.10;72.70;;;;;;5096933;28;20028;-70
2021/07/11 00:32:58;;;;;;;3.60;1.67;;;22.10;72.10;;;;;;5096785;28;20048;-70
2021/07/11 00:35:23;;;;;;;2.42;1.73;;;22.10;72.40;;;;;;5097207;28;20020;-70
2021/07/11 00:37:50;;;;;;;2.80;2.08;;;22.10;73.10;;;;;;5096951;28;20020;-70
2021/07/11 00:40:17;;;;;;;2.58;1.90;;;22.00;71.00;;;;;;5097139;28;20077;-70
2021/07/11 00:42:44;;;;;;;1.83;1.40;;;22.00;71.40;;;;;;5097039;28;20032;-70
2021/07/11 00:45:11;;;;;;;3.70;1.70;;;21.90;73.00;;;;;;5096787;28;20028;-70
2021/07/11 00:47:38;;;;;;;3.08;1.83;;;21.90;71.10;;;;;;5096782;28;20039;-70
2021/07/11 00:50:09;;;;;;;3.03;1.90;;;21.90;71.10;;;;;;5096985;28;20090;-70
2021/07/11 00:52:34;;;;;;;2.15;1.80;;;22.00;72.00;;;;;;5097064;28;20020;-70
2021/07/11 00:55:00;;;;;;;2.83;2.05;;;22.00;70.70;;;;;;5096754;28;20434;-70
2021/07/11 00:57:26;;;;;;;3.17;1.80;;;22.10;71.20;;;;;;5096649;28;20078;-70
2021/07/11 00:59:52;;;;;;;4.00;1.88;;;22.10;70.80;;;;;;5096984;28;20103;-70
2021/07/11 01:02:25;;;;;;;2.72;1.70;;;22.10;70.90;;;;;;5096955;28;20043;-70
2021/07/11 01:04:56;;;;;;;2.47;2.03;;;22.00;72.10;;;;;;5096996;28;20020;-70
2021/07/11 01:07:33;;;;;;;5.53;1.77;;;21.90;71.80;;;;;;5096885;28;20071;-70
2021/07/11 01:10:06;;;;;;;2.40;1.75;;;21.80;72.00;;;;;;5096867;28;20020;-70
2021/07/11 01:12:34;;;;;;;3.63;1.77;;;21.60;74.10;;;;;;5096565;28;20028;-70
2021/07/11 01:15:02;;;;;;;2.65;2.10;;;21.40;74.90;;;;;;5097058;28;20316;-70
2021/07/11 01:17:30;;;;;;;3.75;2.20;;;21.30;74.20;;;;;;5096770;28;20032;-70
2021/07/11 01:20:20;;;;;;;4.28;2.08;;;21.20;74.40;;;;;;5096683;28;20388;-70
2021/07/11 01:22:51;;;;;;;2.90;1.98;;;21.10;75.60;;;;;;5096830;28;20028;-70
2021/07/11 01:25:38;;;;;;;2.70;2.17;;;21.00;75.10;;;;;;5096415;28;20320;-70
2021/07/11 01:28:08;;;;;;;3.55;2.38;;;21.00;75.00;;;;;;5096756;28;20347;-70
2021/07/11 01:30:35;;;;;;;3.40;2.03;;;20.90;74.90;;;;;;5096334;28;20412;-70
2021/07/11 01:33:03;;;;;;;2.88;2.00;;;20.90;75.30;;;;;;5096279;28;20392;-70
2021/07/11 01:35:30;;;;;;;4.18;2.10;;;20.80;76.00;;;;;;5096319;28;20032;-70
2021/07/11 01:37:56;;;;;;;4.38;1.95;;;20.70;76.50;;;;;;5096674;28;20328;-70
2021/07/11 01:40:23;;;;;;;2.10;1.88;;;20.70;76.50;;;;;;5096610;28;20105;-70
2021/07/11 01:42:51;;;;;;;6.38;2.10;;;20.80;75.50;;;;;;5096543;28;20058;-70
2021/07/11 01:45:16;;;;;;;4.18;1.90;;;20.80;76.80;;;;;;5096564;28;20043;-70
2021/07/11 01:47:43;;;;;;;4.97;1.92;;;20.80;75.80;;;;;;5096553;28;20320;-70
2021/07/11 01:50:11;;;;;;;2.10;1.90;;;20.80;75.60;;;;;;5096296;28;20336;-70
2021/07/11 01:52:37;;;;;;;2.63;1.88;;;20.80;76.10;;;;;;5096509;28;20031;-70
2021/07/11 01:55:07;;;;;;;2.28;2.00;;;20.80;76.60;;;;;;5096398;28;20094;-70
2021/07/11 01:57:33;;;;;;;2.70;2.10;;;20.80;75.70;;;;;;5096193;28;20023;-70
2021/07/11 01:59:59;;;;;;;3.13;2.30;;;20.90;75.00;;;;;;5098540;28;20032;-70
2021/07/11 02:02:24;;;;;;;4.15;1.80;;;21.00;76.40;;;;;;5100104;28;20290;-70
2021/07/11 02:04:50;;;;;;;3.35;2.45;;;21.00;75.40;;;;;;5100063;28;20024;-70
2021/07/11 02:07:15;;;;;;;2.75;2.15;;;21.00;75.50;;;;;;5099967;28;20031;-70
2021/07/11 02:09:41;;;;;;;4.25;2.25;;;20.90;75.90;;;;;;5099914;28;20409;-70
2021/07/11 02:12:08;;;;;;;2.38;1.90;;;20.80;76.30;;;;;;5099915;28;20359;-70
2021/07/11 02:14:37;;;;;;;3.03;2.17;;;20.80;75.90;;;;;;5099545;28;20028;-70
2021/07/11 02:17:10;;;;;;;7.88;2.10;;;20.70;76.90;;;;;;5099405;28;20077;-70
2021/07/11 02:19:38;;;;;;;2.95;1.98;;;20.70;77.00;;;;;;5099512;28;20032;-70
2021/07/11 02:22:06;;;;;;;4.25;2.10;;;20.70;76.90;;;;;;5099760;28;20320;-70
2021/07/11 02:24:37;;;;;;;2.97;2.45;;;20.80;76.00;;;;;;5099655;28;20028;-70
2021/07/11 02:27:04;;;;;;;6.10;2.22;;;20.80;76.10;;;;;;5099615;28;20031;-70
2021/07/11 02:29:35;;;;;;;4.55;2.65;;;20.80;75.60;;;;;;5099425;28;20321;-70
2021/07/11 02:32:04;;;;;;;8.65;2.40;;;20.80;75.60;;;;;;5099316;28;20040;-70
2021/07/11 02:34:30;;;;;;;3.15;2.45;;;20.90;75.10;;;;;;5099132;28;20024;-70
2021/07/11 02:36:58;;;;;;;4.43;2.78;;;21.00;75.10;;;;;;5099398;28;20016;-70
2021/07/11 02:39:25;;;;;;;3.38;2.95;;;21.00;74.30;;;;;;5099399;28;20347;-70
2021/07/11 02:42:01;;;;;;;4.25;2.78;;;21.10;73.90;;;;;;5099325;28;20031;-70
2021/07/11 02:44:29;;;;;;;3.30;2.70;;;21.20;74.30;;;;;;5099535;28;20051;-70
2021/07/11 02:47:05;;;;;;;3.88;2.40;;;21.20;76.00;;;;;;5098886;28;20103;-70
2021/07/11 02:49:32;;;;;;;4.28;3.22;;;21.20;76.80;;;;;;5080965;28;20036;-70
2021/07/11 02:52:00;;;;;;;5.80;3.17;;;21.10;75.30;;;;;;5099173;28;20016;-70
2021/07/11 02:54:34;;;;;;;3.83;2.67;;;21.10;75.40;;;;;;5099097;28;20054;-70
2021/07/11 02:57:04;;;;;;;4.07;2.63;;;21.00;75.10;;;;;;5098724;28;20024;-70
2021/07/11 02:59:31;;;;;;;3.78;2.60;;;21.00;74.10;;;;;;5099054;28;20024;-70
2021/07/11 03:02:01;;;;;;;3.30;2.90;;;21.10;74.40;;;;;;5098979;28;20032;-70
2021/07/11 03:04:33;;;;;;;5.10;2.55;;;21.20;74.20;;;;;;5098951;28;20336;-70
2021/07/11 03:07:00;;;;;;;4.30;2.70;;;21.20;75.10;;;;;;5098264;28;20035;-70
2021/07/11 03:09:26;;;;;;;4.88;2.88;;;21.20;76.00;;;;;;5098737;28;20062;-70
2021/07/11 03:11:52;;;;;;;5.38;3.05;;;21.20;74.30;;;;;;5098159;28;20052;-70
2021/07/11 03:14:21;;;;;;;3.83;2.88;;;21.20;75.20;;;;;;5098869;28;20039;-70
2021/07/11 03:16:51;;;;;;;3.55;2.72;;;21.10;75.00;;;;;;5098649;28;20031;-70
2021/07/11 03:19:19;;;;;;;5.45;3.58;;;21.10;75.10;;;;;;5098656;28;20085;-70
2021/07/11 03:21:46;;;;;;;3.25;2.53;;;21.00;75.60;;;;;;5098560;28;20039;-70
2021/07/11 03:24:13;;;;;;;6.13;2.80;;;21.00;74.40;;;;;;5098188;28;20412;-70
2021/07/11 03:26:41;;;;;;;4.53;2.70;;;21.10;74.60;;;;;;5098452;28;20134;-70
2021/07/11 03:29:17;;;;;;;3.65;2.60;;;21.20;74.10;;;;;;5098067;28;20419;-70
2021/07/11 03:31:44;;;;;;;4.57;3.00;;;21.40;74.30;;;;;;5098204;28;20044;-70
2021/07/11 03:34:11;;;;;;;5.47;3.00;;;21.50;74.10;;;;;;5098059;28;20035;-70
2021/07/11 03:36:38;;;;;;;4.20;2.70;;;21.50;73.20;;;;;;5098237;28;20034;-70
2021/07/11 03:39:06;;;;;;;3.92;2.70;;;21.60;73.40;;;;;;5098241;28;20107;-70
2021/07/11 03:41:37;;;;;;;3.35;2.78;;;21.60;73.50;;;;;;5098059;28;20102;-70
2021/07/11 03:44:04;;;;;;;3.20;2.50;;;21.60;73.30;;;;;;5097781;28;20036;-70
2021/07/11 03:46:32;;;;;;;3.85;2.80;;;21.70;73.10;;;;;;5097776;28;20035;-70
2021/07/11 03:49:03;;;;;;;4.40;2.53;;;21.70;73.50;;;;;;5098060;28;20327;-70
2021/07/11 03:51:33;;;;;;;3.88;2.60;;;21.70;73.70;;;;;;5097949;28;20028;-70
2021/07/11 03:53:59;;;;;;;4.82;3.05;;;21.80;73.60;;;;;;5098242;28;20020;-70
2021/07/11 03:56:31;;;;;;;5.32;2.35;;;21.80;74.10;;;;;;5097930;28;20045;-70
2021/07/11 03:58:58;;;;;;;3.70;2.85;;;21.80;73.90;;;;;;5097857;28;20123;-70
2021/07/11 04:01:32;;;;;;;5.38;2.67;;;21.70;75.90;;;;;;5097859;28;20028;-70
2021/07/11 04:04:02;;;;;;;6.40;2.80;;;21.70;74.10;;;;;;5097826;28;20051;-70
2021/07/11 04:06:29;;;;;;;5.05;2.60;;;21.80;74.50;;;;;;5097418;28;20469;-70
2021/07/11 04:09:04;;;;;;;4.22;2.90;;;21.70;76.60;;;;;;5097714;28;20040;-70
2021/07/11 04:11:33;;;;;;;5.95;2.58;;;21.70;77.20;;;;;;5097637;28;20056;-70
2021/07/11 04:13:59;;;;;;;4.07;2.92;;;21.70;75.30;;;;;;5097450;28;20039;-70
2021/07/11 04:16:28;;;;;;;3.97;2.50;;;21.70;76.30;;;;;;5097561;28;20020;-70
2021/07/11 04:18:57;;;;;;;3.40;2.50;;;21.90;75.50;;;;;;5097570;28;20067;-70
2021/07/11 04:21:29;;;;;;;3.88;2.15;;;22.00;75.70;;;;;;5097171;28;20027;-70
2021/07/11 04:23:57;;;;;;;5.00;2.22;;;22.20;73.90;;;;;;5096948;28;20027;-70
2021/07/11 04:26:24;;;;;;;2.42;2.20;;;22.40;74.20;;;;;;5097142;28;20028;-70
2021/07/11 04:28:51;;;;;;;2.50;1.92;;;22.60;74.50;;;;;;5097065;28;20115;-70
2021/07/11 04:31:18;;;;;;;2.63;2.30;;;22.80;73.60;;;;;;5097112;28;20293;-71
2021/07/11 04:33:46;;;;;;;3.90;2.58;;;22.90;74.60;;;;;;5097263;28;20421;-70
2021/07/11 04:36:11;;;;;;;2.53;2.33;;;23.00;73.30;;;;;;5097236;28;20032;-70
2021/07/11 04:38:37;;;;;;;2.67;2.10;;;23.00;71.50;;;;;;5097248;28;20336;-70
2021/07/11 04:41:08;;;;;;;3.88;2.13;;;23.10;72.00;;;;;;5097217;28;20023;-70
2021/07/11 04:43:35;;;;;;;3.55;2.30;;;23.10;71.40;;;;;;5097235;28;20383;-70
2021/07/11 04:46:00;;;;;;;4.53;2.13;;;23.10;71.10;;;;;;5097138;28;20030;-70
2021/07/11 04:48:26;;;;;;;2.88;2.33;;;23.10;71.70;;;;;;5096830;28;20114;-70
2021/07/11 04:50:52;;;;;;;3.90;2.67;;;23.20;71.10;;;;;;5097041;28;20032;-70
2021/07/11 04:53:18;;;;;;;4.80;2.58;;;23.20;71.30;;;;;;5096702;28;20154;-70
2021/07/11 04:55:46;;;;;;;6.18;2.78;;;23.20;70.90;;;;;;5097053;28;20107;-70
2021/07/11 04:58:16;;;;;;;4.43;2.35;;;23.20;71.70;;;;;;5096957;28;20031;-70
2021/07/11 05:00:42;;;;;;;4.63;2.40;;;23.30;71.80;;;;;;5096728;28;20511;-70
2021/07/11 05:03:07;;;;;;;5.90;2.53;;;23.40;71.20;;;;;;5096971;28;20032;-70
2021/07/11 05:05:36;;;;;;;3.38;2.38;;;23.30;71.20;;;;;;5096951;28;20028;-70
2021/07/11 05:08:03;;;;;;;3.38;2.10;;;23.20;70.20;;;;;;5096903;28;20051;-70
2021/07/11 05:10:29;;;;;;;2.33;2.10;;;23.20;71.60;;;;;;5096798;28;20024;-70
2021/07/11 05:12:54;;;;;;;3.45;2.20;;;23.10;72.40;;;;;;5096902;28;20399;-70
2021/07/11 05:15:20;;;;;;;2.90;2.60;;;23.20;73.30;;;;;;5096525;28;20056;-70
2021/07/11 05:17:46;;;;;;;4.35;2.33;;;23.20;72.40;;;;;;5096852;28;20017;-70
2021/07/11 05:20:12;;;;;;;4.50;2.72;;;23.10;72.70;;;;;;5096820;28;20032;-70
2021/07/11 05:22:37;;;;;;;4.55;2.30;;;23.10;72.20;;;;;;5096823;28;20063;-70
2021/07/11 05:25:04;;;;;;;3.25;2.47;;;23.10;72.90;;;;;;5096830;28;20025;-70
2021/07/11 05:27:30;;;;;;;3.97;2.50;;;23.10;72.20;;;;;;5096403;28;20404;-70
2021/07/11 05:29:55;;;;;;;2.50;2.22;;;23.00;72.20;;;;;;5096309;28;20024;-70
2021/07/11 05:32:21;;;;;;;3.45;2.40;;;23.10;72.50;;;;;;5096426;28;20048;-70
2021/07/11 05:34:47;;;;;;;2.83;2.30;;;23.00;72.50;;;;;;5098632;28;20024;-70
2021/07/11 05:37:12;;;;;;;3.28;2.50;;;22.80;73.30;;;;;;5100594;28;20063;-70
2021/07/11 05:39:38;;;;;;;4.38;2.40;;;22.70;72.60;;;;;;5100585;28;20431;-70
2021/07/11 05:42:04;;;;;;;5.95;2.22;;;22.60;73.80;;;;;;5100495;28;20068;-70
2021/07/11 05:44:29;;;;;;;5.95;2.35;;;22.50;73.80;;;;;;5100636;28;20500;-70
2021/07/11 05:46:55;;;;;;;3.65;2.10;;;22.20;74.50;;;;;;5100048;28;20024;-70
2021/07/11 05:49:21;;;;;;;7.07;2.50;;;22.00;74.70;;;;;;5100298;28;20153;-70
2021/07/11 05:51:46;;;;;;;2.88;1.92;;;21.90;74.70;;;;;;5100033;28;20111;-70
2021/07/11 05:54:12;;;;;;;5.97;2.50;;;21.80;75.30;;;;;;5099964;28;20020;-70
2021/07/11 05:56:38;;;;;;;5.05;2.60;;;21.90;75.50;;;;;;5100227;28;20020;-70
2021/07/11 05:59:03;;;;;;;3.63;2.38;;;21.90;75.10;;;;;;5099876;28;20077;-70
2021/07/11 06:01:29;;;;;;;4.65;2.47;;;22.00;75.30;;;;;;5099841;28;20085;-70
2021/07/11 06:03:55;;;;;;;2.97;2.38;;;22.00;75.40;;;;;;5100115;28;20016;-70
2021/07/11 06:06:22;;;;;;;5.85;2.47;;;22.00;75.70;;;;;;5100032;28;20035;-70
2021/07/11 06:08:48;;;;;;;4.15;2.60;;;21.90;76.40;;;;;;5099970;28;20032;-70
2021/07/11 06:11:13;;;;;;;5.97;2.75;;;21.80;76.60;;;;;;5099904;28;20460;-70
2021/07/11 06:13:39;;;;;;;5.97;2.42;;;21.70;76.80;;;;;;5099551;28;20324;-70
2021/07/11 06:16:05;;;;;;;4.55;2.80;;;21.70;76.10;;;;;;5099583;28;20024;-70
2021/07/11 06:18:31;;;;;;;5.30;2.50;;;21.80;76.30;;;;;;5099476;28;20035;-70
2021/07/11 06:20:56;;;;;;;3.40;2.42;;;21.90;75.90;;;;;;5099774;28;20038;-70
2021/07/11 06:23:22;;;;;;;5.65;2.70;;;22.10;75.40;;;;;;5099409;28;20420;-70
2021/07/11 06:25:48;;;;;;;3.85;2.42;;;22.10;75.80;;;;;;5099359;28;20024;-72
2021/07/11 06:28:14;;;;;;;3.22;2.28;;;22.10;76.10;;;;;;5099345;28;20035;-69
2021/07/11 06:30:39;;;;;;;5.78;2.50;;;22.10;75.90;;;;;;5099210;28;20050;-69
2021/07/11 06:33:05;;;;;;;4.60;2.53;;;22.10;76.30;;;;;;5099057;28;20047;-72
2021/07/11 06:35:32;;;;;;;3.60;2.20;;;22.00;76.80;;;;;;5099518;28;20028;-69
2021/07/11 06:37:58;;;;;;;3.30;2.15;;;21.80;77.30;;;;;;5099179;28;20078;-69
2021/07/11 06:40:25;;;;;;;3.08;2.47;;;21.80;77.60;;;;;;5099428;28;20063;-70
2021/07/11 06:42:51;;;;;;;3.30;2.30;;;21.60;78.00;;;;;;5099161;28;20055;-70
2021/07/11 06:45:17;;;;;;;2.53;2.30;;;21.40;78.20;;;;;;5098425;28;20119;-69
2021/07/11 06:47:43;;;;;;;3.38;2.40;;;21.40;78.60;;;;;;5099330;28;20020;-70
2021/07/11 06:50:13;;;;;;;3.55;2.58;;;21.50;78.00;;;;;;5099102;28;20032;-71
2021/07/11 06:52:39;;;;;;;3.88;2.20;;;21.50;77.70;;;;;;5099213;28;20023;-71
2021/07/11 06:55:07;;;;;;;5.13;2.25;;;21.60;77.90;;;;;;5099255;28;20370;-71
2021/07/11 06:57:33;;;;;;;2.60;2.33;;;21.70;77.60;;;;;;5098761;28;20055;-71
2021/07/11 06:59:59;;;;;;;4.20;2.45;;;21.70;77.00;;;;;;5099012;28;20048;-71
2021/07/11 07:02:25;;;;;;;5.05;2.80;;;21.80;77.20;;;;;;5098981;28;20082;-71
2021/07/11 07:04:51;;;;;;;3.80;2.25;;;21.90;76.90;;;;;;5098974;28;20020;-71
2021/07/11 07:07:17;;;;;;;2.55;2.22;;;21.90;77.30;;;;;;5098467;28;20042;-70
2021/07/11 07:09:42;;;;;;;2.97;2.50;;;22.00;76.20;;;;;;5098743;28;20035;-72
2021/07/11 07:12:08;;;;;;;3.88;2.83;;;22.10;76.20;;;;;;5098496;28;20074;-70
2021/07/11 07:14:34;;;;;;;6.30;3.78;;;22.20;75.20;;;;;;5098838;28;20036;-69
2021/07/11 07:17:00;;;;;;;5.25;2.53;;;22.30;75.50;;;;;;5098650;28;20044;-72
2021/07/11 07:19:26;;;;;;;6.00;2.63;;;22.50;73.80;;;;;;5098292;28;20495;-70
2021/07/11 07:21:52;;;;;;;3.85;2.63;;;22.70;74.80;;;;;;5098495;28;20020;-69
2021/07/11 07:24:17;;;;;;;6.13;2.42;;;22.80;73.80;;;;;;5098383;28;20034;-71
2021/07/11 07:26:43;;;;;;;3.28;2.75;;;22.90;75.00;;;;;;5098528;28;20350;-72
2021/07/11 07:29:09;;;;;;;3.00;2.70;;;22.90;75.50;;;;;;5098457;28;20077;-69
2021/07/11 07:31:36;;;;;;;5.63;2.92;;;23.00;73.80;;;;;;5098127;28;20020;-69
2021/07/11 07:34:02;;;;;;;6.40;3.63;;;23.10;75.90;;;;;;5098034;28;20032;-72
2021/07/11 07:36:28;;;;;;;6.88;2.92;;;23.20;71.40;;;;;;5097839;28;20103;-69
2021/07/11 07:38:54;;;;;;;4.00;2.75;;;23.30;70.90;;;;;;5098298;28;20024;-69
2021/07/11 07:41:20;;;;;;;10.15;4.57;;;23.50;72.60;;;;;;5098217;28;20107;-71
2021/07/11 07:43:45;;;;;;;3.47;2.53;;;23.60;73.50;;;;;;5097780;28;20066;-70
2021/07/11 07:46:11;;;;;;;4.25;2.58;;;23.80;75.00;;;;;;5098102;28;20058;-70
2021/07/11 07:48:37;;;;;;;3.90;2.50;;;23.90;74.50;;;;;;5098090;28;20028;-70
2021/07/11 07:51:04;;;;;;;4.38;2.75;;;24.00;73.60;;;;;;5097953;28;20048;-70
2021/07/11 07:53:29;;;;;;;3.58;2.50;;;24.00;73.10;;;;;;5097984;28;20297;-70
2021/07/11 07:55:55;;;;;;;2.80;2.40;;;24.00;72.20;;;;;;5097794;28;20050;-70
2021/07/11 07:58:21;;;;;;;4.90;2.17;;;24.10;70.70;;;;;;5096901;28;20426;-70
2021/07/11 08:00:46;;;;;;;3.08;2.17;;;24.20;69.50;;;;;;5097555;28;20035;-70
2021/07/11 08:03:12;;;;;;;2.80;1.90;;;24.80;71.30;;;;;;5097785;28;20024;-70
2021/07/11 08:05:38;;;;;;;2.95;2.40;;;25.20;71.20;;;;;;5097765;28;20351;-70
2021/07/11 08:08:06;;;;;;;4.35;1.80;;;25.50;68.80;;;;;;5097730;28;20028;-70
2021/07/11 08:10:32;;;;;;;2.22;1.88;;;25.70;69.60;;;;;;5097649;28;20032;-70
2021/07/11 08:12:57;;;;;;;2.83;2.22;;;25.90;68.20;;;;;;5097622;28;20414;-70
2021/07/11 08:15:23;;;;;;;6.65;2.10;;;26.00;69.30;;;;;;5097596;28;20020;-70
2021/07/11 08:17:50;;;;;;;2.28;2.00;;;26.50;67.50;;;;;;5097555;28;20316;-70
2021/07/11 08:20:18;;;;;;;4.88;1.98;;;27.20;65.80;;;;;;5097510;28;20048;-70
2021/07/11 08:22:44;;;;;;;4.20;2.33;;;27.40;65.90;;;;;;5097495;28;20316;-70
2021/07/11 08:25:11;;;;;;;4.32;2.03;;;27.50;65.10;;;;;;5097444;28;20028;-70
2021/07/11 08:27:38;;;;;;;3.85;2.40;;;27.50;64.90;;;;;;5097486;28;20028;-70
2021/07/11 08:30:06;;;;;;;3.72;2.55;;;27.50;63.50;;;;;;5096987;28;20467;-70
2021/07/11 08:32:31;;;;;;;2.72;2.40;;;27.70;59.60;;;;;;5096804;28;20043;-70
2021/07/11 08:34:57;;;;;;;3.58;1.95;;;28.40;61.10;;;;;;5097343;28;20024;-70
2021/07/11 08:37:23;;;;;;;4.13;2.15;;;28.60;61.20;;;;;;5097238;28;20355;-70
2021/07/11 08:39:48;;;;;;;2.67;2.25;;;28.20;60.10;;;;;;5097260;28;20035;-70
2021/07/11 08:42:14;;;;;;;4.22;1.98;;;27.90;62.80;;;;;;5096946;28;20024;-70
2021/07/11 08:44:40;;;;;;;3.40;2.53;;;28.70;63.30;;;;;;5097413;28;20024;-70
2021/07/11 08:47:06;;;;;;;2.88;2.00;;;29.50;60.50;;;;;;5096827;28;20404;-70
2021/07/11 08:49:32;;;;;;;2.78;2.10;;;30.30;58.50;;;;;;5096750;28;20111;-70
2021/07/11 08:52:00;;;;;;;3.35;2.13;;;30.80;55.50;;;;;;5096756;28;20028;-70
2021/07/11 08:54:26;;;;;;;3.03;1.95;;;31.30;55.80;;;;;;5096956;28;20107;-70
2021/07/11 08:57:03;;;;;;;2.40;1.98;;;31.80;55.70;;;;;;5097061;28;20367;-71
2021/07/11 08:59:31;;;;;;;6.28;1.63;;;31.40;54.30;;;;;;5097061;28;20099;-71
2021/07/11 09:01:57;;;;;;;3.92;1.70;;;31.40;57.80;;;;;;5096675;28;20028;-71
2021/07/11 09:04:23;;;;;;;3.65;1.50;;;31.60;55.70;;;;;;5096612;28;20024;-71
2021/07/11 09:06:56;;;;;;;2.35;1.50;;;31.90;56.10;;;;;;5096927;28;20031;-71
2021/07/11 09:09:30;;;;;;;3.13;1.70;;;31.80;55.50;;;;;;5099930;28;20024;-70
2021/07/11 09:12:03;;;;;;;3.37;1.70;;;31.70;55.50;;;;;;5100873;28;20026;-71
2021/07/11 09:14:31;;;;;;;2.55;1.50;;;31.90;55.70;;;;;;5101184;28;20472;-71
2021/07/11 09:16:58;;;;;;;2.03;1.55;;;32.40;56.20;;;;;;5101000;28;20423;-71
2021/07/11 09:19:31;;;;;;;5.45;1.60;;;32.50;55.30;;;;;;5100851;28;20331;-71
2021/07/11 09:22:00;;;;;;;3.80;1.63;;;32.60;54.20;;;;;;5100956;28;20024;-71
2021/07/11 09:24:27;;;;;;;2.88;1.50;;;32.80;53.70;;;;;;5100859;28;20024;-71
2021/07/11 09:26:55;;;;;;;1.90;1.50;;;32.90;53.80;;;;;;5100509;28;20058;-71
2021/07/11 09:29:26;;;;;;;1.90;1.50;;;33.10;53.70;;;;;;5100383;28;20024;-71
2021/07/11 09:31:51;;;;;;;2.35;1.60;;;32.90;54.70;;;;;;5100529;28;20040;-71
2021/07/11 09:34:22;;;;;;;1.33;1.23;;;33.30;50.80;;;;;;5100707;28;20039;-71
2021/07/11 09:37:11;;;;;;;2.03;1.52;;;33.00;53.80;;;;;;5100623;28;20080;-71
2021/07/11 09:39:46;;;;;;;3.13;1.55;;;32.40;51.40;;;;;;5100251;28;20016;-70
2021/07/11 09:42:26;;;;;;;2.85;1.10;;;32.20;53.50;;;;;;5100285;28;20028;-71
2021/07/11 09:44:52;;;;;;;2.10;1.30;;;32.20;53.50;;;;;;5100682;28;20059;-71
2021/07/11 09:47:20;;;;;;;3.25;1.52;;;32.60;51.70;;;;;;5100372;28;20351;-71
2021/07/11 09:50:04;;;;;;;3.63;1.45;;;32.90;53.20;;;;;;5099952;28;20370;-71
2021/07/11 09:52:32;;;;;;;1.73;1.25;;;32.90;52.50;;;;;;5100373;28;20428;-71
2021/07/11 09:55:06;;;;;;;1.65;1.23;;;33.20;52.80;;;;;;5100335;28;20036;-71
2021/07/11 09:57:37;;;;;;;1.33;1.10;;;33.10;51.40;;;;;;5100204;28;20043;-71
2021/07/11 10:00:13;;;;;;;1.30;1.20;;;33.30;49.20;;;;;;5099913;28;20024;-71
2021/07/11 10:02:43;;;;;;;3.25;1.70;;;33.40;50.70;;;;;;5100146;28;20082;-71
2021/07/11 10:05:10;;;;;;;2.40;1.20;;;33.60;53.10;;;;;;5099804;28;20056;-71
2021/07/11 10:07:37;;;;;;;1.42;1.08;;;33.70;52.50;;;;;;5100048;28;20028;-71
2021/07/11 10:10:11;;;;;;;2.05;1.23;;;33.50;51.80;;;;;;5099885;28;20047;-71
2021/07/11 10:12:38;;;;;;;2.55;1.52;;;33.50;50.10;;;;;;5099518;28;20132;-71
2021/07/11 10:15:11;;;;;;;1.58;1.13;;;33.10;50.10;;;;;;5099951;28;20336;-72
2021/07/11 10:17:49;;;;;;;1.70;1.27;;;33.30;51.80;;;;;;5098694;28;20367;-71
2021/07/11 10:20:17;;;;;;;3.00;1.17;;;33.20;52.70;;;;;;5104033;28;20024;-71
2021/07/11 10:22:45;;;;;;;1.40;1.20;;;33.20;52.70;;;;;;5120197;28;20045;-71
2021/07/11 10:25:20;;;;;;;2.33;1.17;;;32.90;51.50;;;;;;5120126;28;20028;-71
2021/07/11 10:27:47;;;;;;;2.60;1.20;;;33.10;52.80;;;;;;5120119;28;20031;-71
2021/07/11 10:30:14;;;;;;;2.42;1.25;;;33.10;51.80;;;;;;5119964;28;20073;-71
2021/07/11 10:32:39;;;;;;;2.38;1.45;;;33.20;48.90;;;;;;5119691;28;20051;-71
2021/07/11 10:35:17;;;;;;;2.75;1.10;;;33.10;51.10;;;;;;5119975;28;20015;-71
2021/07/11 10:37:47;;;;;;;2.47;1.35;;;32.70;54.10;;;;;;5119982;28;20347;-71
2021/07/11 10:40:22;;;;;;;1.52;1.10;;;32.90;52.70;;;;;;5119596;28;20077;-71
2021/07/11 10:42:50;;;;;;;2.08;1.40;;;33.20;52.10;;;;;;5119483;28;20107;-71
2021/07/11 10:45:20;;;;;;;2.15;1.13;;;33.10;52.40;;;;;;5119712;28;20031;-71
2021/07/11 10:47:46;;;;;;;2.60;1.38;;;33.00;52.80;;;;;;5119434;28;20111;-71
2021/07/11 10:50:30;;;;;;;1.73;1.50;;;32.70;52.80;;;;;;5119577;28;20111;-71
2021/07/11 10:52:58;;;;;;;2.10;1.43;;;32.80;52.90;;;;;;5119618;28;20359;-71
2021/07/11 10:55:33;;;;;;;2.35;1.55;;;33.00;52.10;;;;;;5119241;28;20297;-71
2021/07/11 10:58:08;;;;;;;1.85;1.42;;;33.20;51.50;;;;;;5119544;28;20064;-71
2021/07/11 11:00:34;;;;;;;3.47;1.55;;;33.40;51.40;;;;;;5119480;28;20038;-71
2021/07/11 11:03:25;;;;;;;1.70;1.55;;;33.60;46.60;;;;;;5119435;28;20019;-71
2021/07/11 11:05:52;;;;;;;1.80;1.23;;;33.90;54.40;;;;;;5119318;28;20320;-71
2021/07/11 11:08:25;;;;;;;1.88;1.50;;;34.00;50.40;;;;;;5119332;28;20016;-71
2021/07/11 11:10:53;;;;;;;4.03;1.60;;;34.10;55.20;;;;;;5119236;28;20027;-71
2021/07/11 11:13:22;;;;;;;1.58;1.40;;;34.10;51.10;;;;;;5118961;28;20098;-71
2021/07/11 11:16:15;;;;;;;2.95;1.90;;;34.00;54.90;;;;;;5119099;28;20032;-71
2021/07/11 11:18:43;;;;;;;1.48;1.38;;;34.00;52.10;;;;;;5110141;28;20416;-70
2021/07/11 11:21:08;;;;;;;3.50;1.70;;;33.80;52.10;;;;;;5119080;28;20105;-70
2021/07/11 11:23:51;;;;;;;2.80;1.73;;;33.70;51.80;;;;;;5118979;28;20035;-71
2021/07/11 11:26:28;;;;;;;3.40;1.65;;;33.60;51.10;;;;;;5118643;28;20045;-71
2021/07/11 11:28:56;;;;;;;3.00;1.73;;;33.50;51.20;;;;;;5118597;28;20023;-71
2021/07/11 11:31:26;;;;;;;3.22;1.63;;;33.50;50.10;;;;;;5118246;28;20024;-71
2021/07/11 11:34:05;;;;;;;2.17;1.50;;;33.50;53.30;;;;;;5118524;28;20020;-71
2021/07/11 11:36:44;;;;;;;5.60;1.80;;;33.10;52.90;;;;;;5118740;28;20024;-71
2021/07/11 11:39:24;;;;;;;3.00;2.33;;;33.00;51.00;;;;;;5118387;28;20065;-70
2021/07/11 11:41:49;;;;;;;3.00;1.88;;;33.10;50.60;;;;;;5118338;28;20092;-70
2021/07/11 11:44:16;;;;;;;4.43;2.10;;;32.40;49.90;;;;;;5118661;28;20404;-70
2021/07/11 11:46:44;;;;;;;5.78;2.10;;;31.70;54.10;;;;;;5118227;28;20028;-71
2021/07/11 11:49:15;;;;;;;2.65;1.90;;;31.60;54.50;;;;;;5118171;28;20057;-70
2021/07/11 11:51:47;;;;;;;2.53;2.00;;;31.60;55.00;;;;;;5118413;28;20035;-70
2021/07/11 11:54:27;;;;;;;3.15;2.05;;;31.60;55.80;;;;;;5118056;28;20293;-70
2021/07/11 11:56:54;;;;;;;3.78;1.98;;;31.60;53.60;;;;;;5118317;28;20032;-71
2021/07/11 11:59:21;;;;;;;7.38;2.35;;;31.70;55.90;;;;;;5118286;28;20043;-70
2021/07/11 12:01:47;;;;;;;3.05;2.13;;;31.80;53.80;;;;;;5118239;28;20030;-71
2021/07/11 12:04:14;;;;;;;6.53;1.92;;;31.80;53.30;;;;;;5117928;28;20032;-70
2021/07/11 12:06:41;;;;;;;2.40;1.70;;;31.80;58.80;;;;;;5117819;28;20038;-70
2021/07/11 12:09:09;;;;;;;2.50;1.80;;;31.80;53.40;;;;;;5118008;28;20048;-71
2021/07/11 12:11:35;;;;;;;5.55;1.80;;;31.80;55.20;;;;;;5118032;28;20353;-70
2021/07/11 12:14:16;;;;;;;1.88;1.67;;;31.50;52.40;;;;;;5118120;28;20024;-71
2021/07/11 12:16:43;;;;;;;2.72;1.80;;;31.10;58.40;;;;;;5118030;28;20106;-71
2021/07/11 12:19:10;;;;;;;5.13;2.00;;;31.00;60.50;;;;;;5117688;28;20107;-71
2021/07/11 12:21:43;;;;;;;4.38;2.05;;;31.00;55.00;;;;;;5117620;28;20027;-71
2021/07/11 12:24:18;;;;;;;3.28;2.10;;;30.90;59.70;;;;;;5117563;28;20028;-71
2021/07/11 12:26:50;;;;;;;4.65;2.33;;;31.00;57.50;;;;;;5117855;28;20024;-71
2021/07/11 12:29:25;;;;;;;4.75;2.00;;;30.90;53.00;;;;;;5117535;28;20032;-71
2021/07/11 12:32:00;;;;;;;2.92;2.20;;;30.90;56.40;;;;;;5117352;28;20046;-71
2021/07/11 12:34:26;;;;;;;3.58;2.38;;;30.60;55.90;;;;;;5117460;28;20315;-71
2021/07/11 12:37:00;;;;;;;3.75;2.53;;;30.60;61.30;;;;;;5117335;28;20024;-70
2021/07/11 12:39:27;;;;;;;4.10;2.55;;;30.60;56.60;;;;;;5117450;28;20031;-70
2021/07/11 12:41:55;;;;;;;2.95;2.38;;;30.60;55.30;;;;;;5117646;28;20090;-70
2021/07/11 12:44:32;;;;;;;6.25;2.25;;;30.60;62.20;;;;;;5117128;28;20031;-70
2021/07/11 12:47:15;;;;;;;4.20;2.40;;;30.50;63.60;;;;;;5117558;28;20362;-70
2021/07/11 12:49:56;;;;;;;4.55;2.63;;;30.00;56.20;;;;;;5117190;28;20055;-70
2021/07/11 12:52:23;;;;;;;5.07;2.58;;;29.60;57.30;;;;;;5117200;28;20024;-70
2021/07/11 12:54:49;;;;;;;3.05;2.40;;;29.70;57.00;;;;;;5117205;28;20023;-70